Weather at Lymm Dam Airstrip

Public forecast

Using degrees Celsius for public forecast. Weather courtesy of forecast.io.

Closest aviation weather report (METAR) to Lymm Dam Airstrip

Closest report is Manchester Airport, 7.3 nm (13.5 km) E. Retrieved 2020/11/30 19:20 UTC (0 seconds ago):

EGCC 301920Z AUTO 32013KT 9999 NCD 07/03 Q1022 NOSIG

Closest aviation forecast (TAF) to Lymm Dam Airstrip

Closest forecast is Manchester Airport, 7.3 nm (13.5 km) E. Retrieved 2020/11/30 18:00 UTC (1 hour ago):

TAF EGCC 301657Z 3018/0124 32008KT 9999 SCT025 PROB30 TEMPO 0106/0115 6000 PROB30 TEMPO 0115/0121 6000 -RA PROB30 TEMPO 0121/0124 BKN014